createdAt,value
2017-11-07T00:02:20.474Z,2.67
2017-11-07T00:04:49.493Z,2.65
2017-11-07T00:07:18.500Z,2.69
2017-11-07T00:09:47.586Z,2.66
2017-11-07T00:12:15.822Z,2.74
2017-11-07T00:14:44.144Z,2.87
2017-11-07T00:17:12.392Z,2.87
2017-11-07T00:19:41.393Z,2.99
2017-11-07T00:22:10.426Z,3.10
2017-11-07T00:24:38.664Z,3.11
2017-11-07T00:27:07.673Z,3.17
2017-11-07T00:29:35.926Z,3.12
2017-11-07T00:32:04.933Z,3.13
2017-11-07T00:34:33.186Z,3.15
2017-11-07T00:37:02.198Z,3.18
2017-11-07T00:39:31.201Z,3.22
2017-11-07T00:41:59.439Z,3.37
2017-11-07T00:44:27.696Z,3.43
2017-11-07T00:46:55.940Z,3.42
2017-11-07T00:49:24.182Z,3.45
2017-11-07T00:51:53.209Z,3.50
2017-11-07T00:54:21.429Z,3.48
2017-11-07T00:56:49.685Z,3.49
2017-11-07T00:59:17.916Z,3.51
2017-11-07T01:01:46.165Z,3.54
2017-11-07T01:04:14.403Z,3.59
2017-11-07T01:06:42.660Z,3.61
2017-11-07T01:09:10.897Z,3.66
2017-11-07T01:11:39.123Z,3.68
2017-11-07T01:14:07.366Z,3.67
2017-11-07T01:16:35.609Z,3.69
2017-11-07T01:19:03.862Z,3.65
2017-11-07T01:21:32.092Z,3.55
2017-11-07T01:24:00.345Z,3.62
2017-11-07T01:26:29.346Z,3.51
2017-11-07T01:28:58.354Z,3.46
2017-11-07T01:31:26.600Z,3.42
2017-11-07T01:33:54.841Z,3.49
2017-11-07T01:36:23.073Z,3.58
2017-11-07T01:38:51.336Z,3.65
2017-11-07T01:41:20.341Z,3.74
2017-11-07T01:43:48.578Z,3.79
2017-11-07T01:46:16.830Z,3.85
2017-11-07T01:48:45.065Z,3.90
2017-11-07T01:51:13.321Z,3.86
2017-11-07T01:53:41.558Z,3.83
2017-11-07T01:56:09.797Z,3.93
2017-11-07T01:58:38.041Z,3.81
2017-11-07T02:01:06.286Z,3.82
2017-11-07T02:03:34.530Z,3.82
2017-11-07T02:06:02.777Z,3.86
2017-11-07T02:08:31.785Z,3.78
2017-11-07T02:11:00.027Z,3.82
2017-11-07T02:13:28.274Z,3.84
2017-11-07T02:15:56.506Z,3.91
2017-11-07T02:18:25.521Z,3.94
2017-11-07T02:20:53.758Z,4.01
2017-11-07T02:23:22.174Z,4.00
2017-11-07T02:25:50.410Z,4.05
2017-11-07T02:28:18.653Z,4.02
2017-11-07T02:30:46.891Z,4.08
2017-11-07T02:33:15.131Z,4.06
2017-11-07T02:35:43.372Z,4.03
2017-11-07T02:38:11.630Z,4.07
2017-11-07T02:40:39.869Z,4.12
2017-11-07T02:43:08.908Z,4.04
2017-11-07T02:45:37.153Z,4.00
2017-11-07T02:48:06.163Z,3.99
2017-11-07T02:50:34.419Z,4.07
2017-11-07T02:53:03.431Z,4.18
2017-11-07T02:55:31.667Z,4.21
2017-11-07T02:57:59.912Z,4.29
2017-11-07T03:00:28.160Z,4.30
2017-11-07T03:02:56.405Z,4.36
2017-11-07T03:05:25.421Z,4.46
2017-11-07T03:07:53.663Z,4.55
2017-11-07T03:10:22.678Z,4.62
2017-11-07T03:12:50.918Z,4.71
2017-11-07T03:15:19.179Z,4.72
2017-11-07T03:17:47.414Z,4.73
2017-11-07T03:20:15.678Z,4.74
2017-11-07T03:22:43.923Z,4.84
2017-11-07T03:25:12.165Z,4.86
2017-11-07T03:27:40.415Z,4.88
2017-11-07T03:30:08.656Z,4.83
2017-11-07T03:32:37.671Z,4.84
2017-11-07T03:35:06.679Z,4.88
2017-11-07T03:37:34.922Z,4.88
2017-11-07T03:40:03.924Z,4.83
2017-11-07T03:42:32.935Z,4.78
2017-11-07T03:45:01.170Z,4.79
2017-11-07T03:47:29.413Z,4.81
2017-11-07T03:49:57.657Z,4.82
2017-11-07T03:52:25.918Z,4.79
2017-11-07T03:54:54.924Z,4.74
2017-11-07T03:57:23.162Z,4.70
2017-11-07T03:59:51.408Z,4.71
2017-11-07T04:02:19.643Z,4.77
2017-11-07T04:04:48.663Z,4.52
2017-11-07T04:07:16.906Z,4.56
2017-11-07T04:09:45.917Z,4.54
2017-11-07T04:12:14.157Z,4.63
2017-11-07T04:14:42.408Z,4.66
2017-11-07T04:17:10.644Z,4.59
2017-11-07T04:19:38.890Z,4.62
2017-11-07T04:22:07.894Z,4.65
2017-11-07T04:24:36.901Z,4.68
2017-11-07T04:27:05.175Z,4.72
2017-11-07T04:29:33.418Z,4.69
2017-11-07T04:32:02.429Z,4.72
2017-11-07T04:34:31.620Z,4.76
2017-11-07T04:37:00.638Z,4.79
2017-11-07T04:39:28.885Z,4.82
2017-11-07T04:41:57.916Z,4.86
2017-11-07T04:44:26.158Z,4.92
2017-11-07T04:46:55.162Z,4.90
2017-11-07T04:49:23.413Z,4.94
2017-11-07T04:51:51.658Z,4.92
2017-11-07T04:54:19.906Z,4.91
2017-11-07T04:56:48.170Z,4.96
2017-11-07T04:59:17.172Z,4.98
2017-11-07T05:01:45.410Z,5.00
2017-11-07T05:04:14.433Z,4.95
2017-11-07T05:06:42.677Z,5.01
2017-11-07T05:09:11.697Z,5.06
2017-11-07T05:11:39.938Z,5.05
2017-11-07T05:14:08.211Z,5.07
2017-11-07T05:16:36.451Z,5.06
2017-11-07T05:19:04.694Z,5.06
2017-11-07T05:21:32.942Z,5.08
2017-11-07T05:24:01.182Z,5.07
2017-11-07T05:26:29.438Z,5.05
2017-11-07T05:28:57.677Z,5.03
2017-11-07T05:31:26.797Z,5.07
2017-11-07T05:33:55.044Z,5.09
2017-11-07T05:36:23.293Z,5.09
2017-11-07T05:38:51.545Z,5.09
2017-11-07T05:41:19.809Z,5.10
2017-11-07T05:43:48.049Z,5.13
2017-11-07T05:46:17.050Z,5.15
2017-11-07T05:48:46.063Z,5.17
2017-11-07T05:51:14.305Z,5.16
2017-11-07T05:53:43.326Z,5.20
2017-11-07T05:56:11.570Z,5.20
2017-11-07T05:58:39.822Z,5.21
2017-11-07T06:01:08.067Z,5.28
2017-11-07T06:03:36.316Z,5.27
2017-11-07T06:06:05.317Z,5.28
2017-11-07T06:08:33.570Z,5.30
2017-11-07T06:11:01.813Z,5.33
2017-11-07T06:13:30.079Z,5.29
2017-11-07T06:15:58.328Z,5.26
2017-11-07T06:18:26.570Z,5.29
2017-11-07T06:20:54.813Z,5.36
2017-11-07T06:23:23.079Z,5.40
2017-11-07T06:25:51.310Z,5.43
2017-11-07T06:28:20.315Z,5.46
2017-11-07T06:30:48.559Z,5.44
2017-11-07T06:33:16.799Z,5.50
2017-11-07T06:35:45.042Z,5.48
2017-11-07T06:38:13.278Z,5.52
2017-11-07T06:40:41.530Z,5.57
2017-11-07T06:43:09.769Z,5.62
2017-11-07T06:45:38.025Z,5.62
2017-11-07T06:48:07.037Z,5.59
2017-11-07T06:50:35.293Z,5.63
2017-11-07T06:53:04.300Z,5.67
2017-11-07T06:55:32.559Z,5.67
2017-11-07T06:58:01.562Z,5.71
2017-11-07T07:00:30.570Z,5.73
2017-11-07T07:02:58.819Z,5.67
2017-11-07T07:05:27.828Z,5.68
2017-11-07T07:07:56.082Z,5.71
2017-11-07T07:10:24.327Z,5.79
2017-11-07T07:12:52.571Z,5.76
2017-11-07T07:15:20.814Z,5.81
2017-11-07T07:17:49.825Z,5.85
2017-11-07T07:20:18.066Z,5.93
2017-11-07T07:22:46.318Z,5.92
2017-11-07T07:25:14.568Z,5.87
2017-11-07T07:27:42.832Z,5.97
2017-11-07T07:30:11.074Z,5.95
2017-11-07T07:32:39.322Z,5.97
2017-11-07T07:35:07.570Z,6.00
2017-11-07T07:37:35.813Z,5.99
2017-11-07T07:40:04.827Z,6.01
2017-11-07T07:42:33.070Z,6.05
2017-11-07T07:45:02.078Z,6.11
2017-11-07T07:47:31.087Z,6.09
2017-11-07T07:49:59.336Z,6.17
2017-11-07T07:52:27.572Z,6.27
2017-11-07T07:54:55.826Z,6.27
2017-11-07T07:57:24.058Z,6.27
2017-11-07T07:59:53.070Z,6.28
2017-11-07T08:02:21.309Z,6.35
2017-11-07T08:04:49.554Z,6.44
2017-11-07T08:07:17.799Z,6.50
2017-11-07T08:09:46.054Z,6.55
2017-11-07T08:12:14.291Z,6.54
2017-11-07T08:14:42.541Z,6.48
2017-11-07T08:17:10.781Z,6.51
2017-11-07T08:19:39.018Z,6.63
2017-11-07T08:22:07.250Z,6.65
2017-11-07T08:24:35.494Z,6.76
2017-11-07T08:27:03.730Z,6.86
2017-11-07T08:29:31.977Z,6.86
2017-11-07T08:32:00.217Z,6.83
2017-11-07T08:34:28.476Z,6.81
2017-11-07T08:36:56.726Z,6.78
2017-11-07T08:39:24.958Z,6.69
2017-11-07T08:41:53.974Z,6.69
2017-11-07T08:44:22.218Z,6.83
2017-11-07T08:46:50.466Z,6.82
2017-11-07T08:49:19.475Z,6.82
2017-11-07T08:51:47.719Z,6.82
2017-11-07T08:54:15.966Z,6.93
2017-11-07T08:56:44.211Z,6.86
2017-11-07T08:59:13.222Z,6.90
2017-11-07T09:01:42.238Z,6.95
2017-11-07T09:04:10.468Z,6.89
2017-11-07T09:06:39.498Z,6.91
2017-11-07T09:09:07.737Z,6.84
2017-11-07T09:11:35.984Z,7.21
2017-11-07T09:14:04.224Z,7.15
2017-11-07T09:16:32.470Z,7.32
2017-11-07T09:19:01.490Z,7.10
2017-11-07T09:21:29.738Z,7.26
2017-11-07T09:23:58.754Z,7.29
2017-11-07T09:26:26.999Z,7.14
2017-11-07T09:28:55.250Z,7.29
2017-11-07T09:31:23.499Z,7.25
2017-11-07T09:33:51.751Z,7.34
2017-11-07T09:36:19.994Z,7.40
2017-11-07T09:38:48.267Z,7.23
2017-11-07T09:41:16.501Z,7.11
2017-11-07T09:43:44.747Z,7.19
2017-11-07T09:46:13.759Z,7.17
2017-11-07T09:48:42.002Z,7.19
2017-11-07T09:51:11.026Z,7.33
2017-11-07T09:53:39.279Z,7.40
2017-11-07T09:56:08.289Z,7.43
2017-11-07T09:58:36.534Z,7.21
2017-11-07T10:01:04.787Z,7.23
2017-11-07T10:03:33.034Z,7.32
2017-11-07T10:06:01.282Z,7.24
2017-11-07T10:08:29.526Z,7.26
2017-11-07T10:10:57.773Z,7.35
2017-11-07T10:13:26.781Z,7.40
2017-11-07T10:15:55.026Z,7.39
2017-11-07T10:18:23.272Z,7.38
2017-11-07T10:20:52.288Z,7.44
2017-11-07T10:23:20.519Z,7.43
2017-11-07T10:25:48.766Z,7.55
2017-11-07T10:28:17.015Z,7.58
2017-11-07T10:30:45.266Z,7.68
2017-11-07T10:33:14.278Z,7.76
2017-11-07T10:35:42.529Z,7.55
2017-11-07T10:38:11.533Z,7.77
2017-11-07T10:40:39.789Z,7.75
2017-11-07T10:43:08.797Z,7.63
2017-11-07T10:45:37.053Z,7.66
2017-11-07T10:48:05.294Z,7.68
2017-11-07T10:50:33.547Z,7.77
2017-11-07T10:53:01.933Z,7.77
2017-11-07T10:55:30.200Z,7.75
2017-11-07T10:57:58.442Z,8.00
2017-11-07T11:00:27.461Z,8.08
2017-11-07T11:02:55.703Z,8.20
2017-11-07T11:05:24.721Z,8.17
2017-11-07T11:07:52.958Z,8.18
2017-11-07T11:10:21.201Z,8.32
2017-11-07T11:12:49.449Z,8.32
2017-11-07T11:15:17.692Z,8.24
2017-11-07T11:17:45.937Z,8.30
2017-11-07T11:20:14.186Z,8.33
2017-11-07T11:22:42.434Z,8.21
2017-11-07T11:25:11.439Z,8.17
2017-11-07T11:27:39.689Z,8.19
2017-11-07T11:30:07.934Z,8.14
2017-11-07T11:32:36.175Z,8.09
2017-11-07T11:35:04.428Z,8.14
2017-11-07T11:37:33.437Z,8.21
2017-11-07T11:40:01.682Z,8.11
2017-11-07T11:42:30.689Z,8.26
2017-11-07T11:44:59.715Z,8.24
2017-11-07T11:47:27.953Z,8.05
2017-11-07T11:49:56.967Z,8.16
2017-11-07T11:52:25.214Z,8.27
2017-11-07T11:54:54.234Z,8.09
2017-11-07T11:57:22.482Z,8.10
2017-11-07T11:59:51.500Z,8.04
2017-11-07T12:02:19.748Z,8.18
2017-11-07T12:04:47.979Z,8.25
2017-11-07T12:07:16.226Z,8.19
2017-11-07T12:09:44.476Z,8.27
2017-11-07T12:12:13.498Z,8.35
2017-11-07T12:14:41.741Z,8.24
2017-11-07T12:17:10.753Z,8.27
2017-11-07T12:19:39.007Z,8.32
2017-11-07T12:22:07.256Z,8.29
2017-11-07T12:24:35.587Z,8.22
2017-11-07T12:27:03.839Z,8.31
2017-11-07T12:29:32.856Z,8.28
2017-11-07T12:32:01.105Z,8.16
2017-11-07T12:34:29.337Z,8.20
2017-11-07T12:36:57.646Z,8.21
2017-11-07T12:39:25.895Z,8.21
2017-11-07T12:41:54.152Z,8.17
2017-11-07T12:44:22.382Z,8.14
2017-11-07T12:46:51.412Z,8.29
2017-11-07T12:49:19.677Z,8.16
2017-11-07T12:51:59.766Z,8.31
2017-11-07T12:54:28.018Z,8.23
2017-11-07T12:56:56.272Z,8.13
2017-11-07T12:59:25.283Z,8.17
2017-11-07T13:01:53.541Z,8.19
2017-11-07T13:04:22.552Z,8.17
2017-11-07T13:06:50.802Z,8.21
2017-11-07T13:09:19.813Z,8.20
2017-11-07T13:11:48.064Z,8.35
2017-11-07T13:14:17.066Z,8.42
2017-11-07T13:16:46.089Z,8.41
2017-11-07T13:19:14.334Z,8.47
2017-11-07T13:21:43.355Z,8.62
2017-11-07T13:24:11.606Z,8.48
2017-11-07T13:26:40.610Z,8.63
2017-11-07T13:29:08.872Z,8.60
2017-11-07T13:31:37.870Z,8.55
2017-11-07T13:34:06.887Z,8.55
2017-11-07T13:36:35.130Z,8.59
2017-11-07T13:39:04.138Z,8.62
2017-11-07T13:41:32.386Z,8.64
2017-11-07T13:44:00.638Z,8.66
2017-11-07T13:46:28.868Z,8.75
2017-11-07T13:48:57.119Z,8.57
2017-11-07T13:51:26.129Z,8.61
2017-11-07T13:53:54.386Z,8.57
2017-11-07T13:56:23.398Z,8.57
2017-11-07T13:58:51.647Z,8.51
2017-11-07T14:01:19.899Z,8.53
2017-11-07T14:03:48.145Z,8.54
2017-11-07T14:06:16.386Z,8.50
2017-11-07T14:08:45.395Z,8.55
2017-11-07T14:11:13.642Z,8.58
2017-11-07T14:13:41.883Z,8.54
2017-11-07T14:16:10.134Z,8.47
2017-11-07T14:18:38.383Z,8.36
2017-11-07T14:21:07.410Z,8.38
2017-11-07T14:23:35.653Z,8.36
2017-11-07T14:26:04.663Z,8.38
2017-11-07T14:28:32.910Z,8.34
2017-11-07T14:31:01.945Z,8.43
2017-11-07T14:33:30.182Z,8.46
2017-11-07T14:35:59.186Z,8.48
2017-11-07T14:38:28.202Z,8.43
2017-11-07T14:40:56.446Z,8.45
2017-11-07T14:43:25.475Z,8.40
2017-11-07T14:45:53.707Z,8.42
2017-11-07T14:48:22.729Z,8.33
2017-11-07T14:50:50.974Z,8.35
2017-11-07T14:53:19.991Z,8.32
2017-11-07T14:55:48.242Z,8.34
2017-11-07T14:58:17.251Z,8.32
2017-11-07T15:00:46.262Z,8.32
2017-11-07T15:03:14.511Z,8.25
2017-11-07T15:05:43.518Z,8.27
2017-11-07T15:08:11.770Z,8.24
2017-11-07T15:10:40.779Z,8.22
2017-11-07T15:13:09.794Z,8.18
2017-11-07T15:15:38.046Z,8.14
2017-11-07T15:18:07.073Z,8.16
2017-11-07T15:20:35.309Z,8.14
2017-11-07T15:23:04.329Z,8.11
2017-11-07T15:25:32.576Z,8.09
2017-11-07T15:28:01.585Z,8.05
2017-11-07T15:30:29.827Z,8.04
2017-11-07T15:32:58.090Z,8.05
2017-11-07T15:35:26.338Z,8.06
2017-11-07T15:37:54.591Z,8.02
2017-11-07T15:40:22.844Z,8.04
2017-11-07T15:42:51.862Z,8.05
2017-11-07T15:45:20.124Z,8.02
2017-11-07T15:47:49.126Z,8.03
2017-11-07T15:50:17.366Z,8.00
2017-11-07T15:52:45.618Z,8.02
2017-11-07T15:55:13.871Z,8.03
2017-11-07T15:57:42.124Z,8.01
2017-11-07T16:00:11.144Z,8.02
2017-11-07T16:02:40.220Z,7.94
2017-11-07T16:05:08.465Z,8.00
2017-11-07T16:07:36.715Z,8.00
2017-11-07T16:10:04.964Z,7.98
2017-11-07T16:12:33.213Z,8.01
2017-11-07T16:15:01.464Z,7.98
2017-11-07T16:17:29.727Z,7.95
2017-11-07T16:19:57.954Z,7.98
2017-11-07T16:22:26.210Z,8.01
2017-11-07T16:24:55.222Z,7.97
2017-11-07T16:27:23.474Z,8.00
2017-11-07T16:29:52.487Z,7.94
2017-11-07T16:32:20.731Z,7.95
2017-11-07T16:34:49.742Z,7.92
2017-11-07T16:37:18.766Z,7.95
2017-11-07T16:39:48.563Z,7.91
2017-11-07T16:42:16.808Z,7.91
2017-11-07T16:44:45.821Z,7.91
2017-11-07T16:47:14.069Z,7.90
2017-11-07T16:49:42.307Z,7.93
2017-11-07T16:52:10.553Z,7.91
2017-11-07T16:54:38.796Z,7.93
2017-11-07T16:57:07.817Z,7.92
2017-11-07T16:59:36.062Z,7.95
2017-11-07T17:02:05.078Z,7.92
2017-11-07T17:04:33.345Z,7.89
2017-11-07T17:07:02.384Z,7.90
2017-11-07T17:09:30.643Z,7.85
2017-11-07T17:11:58.884Z,7.88
2017-11-07T17:14:27.905Z,7.87
2017-11-07T17:16:56.153Z,7.85
2017-11-07T17:19:25.162Z,7.83
2017-11-07T17:21:53.423Z,7.84
2017-11-07T17:24:22.428Z,7.82
2017-11-07T17:26:50.677Z,7.75
2017-11-07T17:29:19.698Z,7.72
2017-11-07T17:31:48.714Z,7.75
2017-11-07T17:34:16.959Z,7.73
2017-11-07T17:36:45.990Z,7.75
2017-11-07T17:39:14.238Z,7.67
2017-11-07T17:41:42.484Z,7.67
2017-11-07T17:44:10.741Z,7.63
2017-11-07T17:46:38.978Z,7.63
2017-11-07T17:49:07.221Z,7.60
2017-11-07T17:51:36.241Z,7.60
2017-11-07T17:54:04.488Z,7.61
2017-11-07T17:56:33.489Z,7.59
2017-11-07T17:59:02.506Z,7.58
2017-11-07T18:01:30.751Z,7.61
2017-11-07T18:03:59.772Z,7.61
2017-11-07T18:06:28.018Z,7.58
2017-11-07T18:08:57.034Z,7.58
2017-11-07T18:11:25.281Z,7.55
2017-11-07T18:13:53.529Z,7.54
2017-11-07T18:16:21.776Z,7.57
2017-11-07T18:18:50.019Z,7.58
2017-11-07T18:21:19.030Z,7.54
2017-11-07T18:23:47.283Z,7.58
2017-11-07T18:26:16.286Z,7.55
2017-11-07T18:28:44.538Z,7.55
2017-11-07T18:31:12.779Z,7.45
2017-11-07T18:33:41.034Z,7.49
2017-11-07T18:36:09.275Z,7.46
2017-11-07T18:38:38.286Z,7.46
2017-11-07T18:41:06.532Z,7.43
2017-11-07T18:43:34.790Z,7.44
2017-11-07T18:46:03.034Z,7.40
2017-11-07T18:48:31.278Z,7.38
2017-11-07T18:51:00.291Z,7.42
2017-11-07T18:53:28.541Z,7.34
2017-11-07T18:55:57.550Z,7.32
2017-11-07T18:58:26.563Z,7.35
2017-11-07T19:00:54.807Z,7.35
2017-11-07T19:03:23.818Z,7.37
2017-11-07T19:05:52.063Z,7.34
2017-11-07T19:08:20.307Z,7.36
2017-11-07T19:10:48.555Z,7.35
2017-11-07T19:13:16.803Z,7.35
2017-11-07T19:15:45.812Z,7.37
2017-11-07T19:18:14.064Z,7.34
2017-11-07T19:20:43.068Z,7.40
2017-11-07T19:23:12.083Z,7.42
2017-11-07T19:25:40.340Z,7.42
2017-11-07T19:28:09.339Z,7.43
2017-11-07T19:30:37.582Z,7.42
2017-11-07T19:33:05.835Z,7.40
2017-11-07T19:35:34.079Z,7.45
2017-11-07T19:38:02.333Z,7.43
2017-11-07T19:40:31.336Z,7.41
2017-11-07T19:42:59.581Z,7.43
2017-11-07T19:45:28.593Z,7.42
2017-11-07T19:47:57.607Z,7.42
2017-11-07T19:50:25.842Z,7.45
2017-11-07T19:52:54.865Z,7.41
2017-11-07T19:55:23.118Z,7.42
2017-11-07T19:57:52.119Z,7.42
2017-11-07T20:00:21.132Z,7.42
2017-11-07T20:02:49.383Z,7.42
2017-11-07T20:05:18.395Z,7.36
2017-11-07T20:07:46.655Z,7.36
2017-11-07T20:10:15.661Z,7.37
2017-11-07T20:12:43.921Z,7.35
2017-11-07T20:15:12.929Z,7.40
2017-11-07T20:17:41.204Z,7.37
2017-11-07T20:20:09.445Z,7.35
2017-11-07T20:22:37.723Z,7.40
2017-11-07T20:25:05.980Z,7.41
2017-11-07T20:27:34.218Z,7.41
2017-11-07T20:30:02.472Z,7.40
2017-11-07T20:32:30.721Z,7.32
2017-11-07T20:34:58.990Z,7.32
2017-11-07T20:37:27.233Z,7.34
2017-11-07T20:39:55.487Z,7.32
2017-11-07T20:42:23.739Z,7.37
2017-11-07T20:44:52.745Z,7.36
2017-11-07T20:47:20.989Z,7.40
2017-11-07T20:49:49.891Z,7.41
2017-11-07T20:52:18.899Z,7.43
2017-11-07T20:54:47.916Z,7.38
2017-11-07T20:57:16.154Z,7.39
2017-11-07T20:59:45.173Z,7.36
2017-11-07T21:02:13.422Z,7.38
2017-11-07T21:04:41.666Z,7.35
2017-11-07T21:07:09.916Z,7.30
2017-11-07T21:09:38.165Z,7.32
2017-11-07T21:12:06.402Z,7.31
2017-11-07T21:14:34.655Z,7.30
2017-11-07T21:17:02.901Z,7.31
2017-11-07T21:19:32.943Z,7.32
2017-11-07T21:22:01.189Z,7.22
2017-11-07T21:24:29.437Z,7.18
2017-11-07T21:26:58.457Z,7.23
2017-11-07T21:29:26.705Z,7.24
2017-11-07T21:31:55.717Z,7.20
2017-11-07T21:34:24.718Z,7.19
2017-11-07T21:36:52.962Z,7.20
2017-11-07T21:39:21.211Z,7.22
2017-11-07T21:41:49.458Z,7.24
2017-11-07T21:44:17.705Z,7.22
2017-11-07T21:46:46.714Z,7.22
2017-11-07T21:49:14.970Z,7.19
2017-11-07T21:51:43.982Z,7.22
2017-11-07T21:54:12.229Z,7.17
2017-11-07T21:56:41.244Z,7.18
2017-11-07T21:59:09.498Z,7.18
2017-11-07T22:01:37.736Z,7.19
2017-11-07T22:04:05.992Z,7.12
2017-11-07T22:06:34.250Z,7.16
2017-11-07T22:09:02.502Z,7.17
2017-11-07T22:11:31.515Z,7.18
2017-11-07T22:13:59.786Z,7.18
2017-11-07T22:16:28.799Z,7.20
2017-11-07T22:19:03.450Z,7.17
2017-11-07T22:21:31.693Z,7.17
2017-11-07T22:23:59.935Z,7.17
2017-11-07T22:26:28.181Z,7.16
2017-11-07T22:28:57.195Z,7.19
2017-11-07T22:31:28.268Z,7.15
2017-11-07T22:33:56.506Z,7.15
2017-11-07T22:36:24.760Z,7.14
2017-11-07T22:38:56.966Z,7.12
2017-11-07T22:41:26.066Z,7.12
2017-11-07T22:43:55.902Z,7.13
2017-11-07T22:46:24.208Z,7.13
2017-11-07T22:48:53.314Z,7.17
2017-11-07T22:51:21.652Z,7.17
2017-11-07T22:53:50.028Z,7.14
2017-11-07T22:56:18.400Z,7.16
2017-11-07T22:58:47.534Z,7.12
2017-11-07T23:13:52.130Z,7.20
2017-11-07T23:16:20.458Z,7.16
2017-11-07T23:18:49.487Z,7.17
2017-11-07T23:21:17.767Z,7.15
2017-11-07T23:23:46.010Z,7.14
2017-11-07T23:26:15.010Z,7.12
2017-11-07T23:28:44.043Z,7.11
2017-11-07T23:31:12.282Z,7.13
2017-11-07T23:33:40.530Z,7.11
2017-11-07T23:36:08.786Z,7.14
2017-11-07T23:38:37.024Z,7.13
2017-11-07T23:41:05.276Z,7.16
2017-11-07T23:43:34.285Z,7.13
2017-11-07T23:46:02.544Z,7.14
2017-11-07T23:48:31.544Z,7.17
2017-11-07T23:51:02.374Z,7.19
2017-11-07T23:53:31.384Z,7.20
2017-11-07T23:55:59.634Z,7.22
2017-11-07T23:58:30.493Z,7.24
